Calmer, Arkansas
Current Conditions -  °F | °C
As of 6:53 PM on Sunday 23 Nov 2014 (Local Time) from KPBF Reporting Station
Few Clouds Few Clouds  
Wind Chill: 17°   Ceiling: Unl
Heat Index: 17°   Visibility: 10mi
Dew Point: 15°   Wind: 12mph
Humidity: 90%   Direction: 190°S
Pressure: 29.44"   Gusts: NA
Location:  33.947°N, 92.1633°W
Report Text: KPBF 240053Z AUTO 19010KT 10SM FEW012 17/15 A2944 RMK AO2 SLP968 T01670150
Loading
Personal Weather Stations






























Interactive Weather Map New forecast layout! Learn more

10-Day Weather Forecast

Advertisements
Track Severe Weather on mobile